Terminal Aerodrome Forecast
Issued by NWS Wilmington, OH

Home | Current Version | Previous Version | Text Only | Print | Product List | Glossary On
Versions: 1 2 3 4 5 6 7 8 9 10 11 12 13 14 15 16 17 18 19 20 21 22 23 24
000
FTUS41 KILN 020600 AAA
TAFILN
TAF AMD
KILN 020614Z 0206/0306 21007KT P6SM SCT025 BKN250
      TEMPO 0206/0209 BKN025
     FM020900 22005KT P6SM VCTS BKN080CB
     FM021100 25005KT P6SM -SHRA VCTS OVC040CB
      TEMPO 0211/0214 3SM -TSRA OVC025CB
     FM021500 23008KT P6SM VCSH BKN040
     FM021800 23012KT P6SM VCTS BKN040CB
     FM022200 22008KT P6SM SCT040
     FM030000 20005KT P6SM SCT250=

USA.gov is the U.S. government's official web portal to all federal, state and local government web resources and services.